createdAt,value
2022-11-09T00:01:41.047Z,11.30
2022-11-09T00:04:08.494Z,11.30
2022-11-09T00:06:36.328Z,11.30
2022-11-09T00:09:08.364Z,11.30
2022-11-09T00:11:37.834Z,11.30
2022-11-09T00:14:05.169Z,11.30
2022-11-09T00:16:32.107Z,11.30
2022-11-09T00:18:59.114Z,11.20
2022-11-09T00:21:26.016Z,11.30
2022-11-09T00:23:53.578Z,11.30
2022-11-09T00:26:21.705Z,11.30
2022-11-09T00:28:49.428Z,11.40
2022-11-09T00:31:20.354Z,11.40
2022-11-09T00:33:55.533Z,11.40
2022-11-09T00:36:23.745Z,11.40
2022-11-09T00:38:53.097Z,11.40
2022-11-09T00:41:20.948Z,11.40
2022-11-09T00:43:48.682Z,11.40
2022-11-09T00:46:16.231Z,11.40
2022-11-09T00:48:44.233Z,11.40
2022-11-09T00:51:11.744Z,11.40
2022-11-09T00:53:38.667Z,11.50
2022-11-09T00:56:10.315Z,11.40
2022-11-09T00:58:38.871Z,11.50
2022-11-09T01:01:08.806Z,11.50
2022-11-09T01:03:35.786Z,11.50
2022-11-09T01:06:03.002Z,11.50
2022-11-09T01:08:30.334Z,11.50
2022-11-09T01:10:57.217Z,11.50
2022-11-09T01:13:24.211Z,11.50
2022-11-09T01:15:53.337Z,11.50
2022-11-09T01:18:21.592Z,11.50
2022-11-09T01:20:50.045Z,11.50
2022-11-09T01:23:18.997Z,11.50
2022-11-09T01:25:46.262Z,11.50
2022-11-09T01:28:13.264Z,11.50
2022-11-09T01:30:42.775Z,11.40
2022-11-09T01:33:12.135Z,11.40
2022-11-09T01:35:40.508Z,11.50
2022-11-09T01:38:08.757Z,11.50
2022-11-09T01:40:38.333Z,11.50
2022-11-09T01:43:19.004Z,11.50
2022-11-09T01:46:07.960Z,11.50
2022-11-09T01:48:53.749Z,11.50
2022-11-09T01:51:33.399Z,11.50
2022-11-09T01:54:15.472Z,11.50
2022-11-09T01:56:44.393Z,11.50
2022-11-09T01:59:22.335Z,11.50
2022-11-09T02:01:50.792Z,11.50
2022-11-09T02:04:28.749Z,11.40
2022-11-09T02:06:57.504Z,11.40
2022-11-09T02:09:37.086Z,11.40
2022-11-09T02:12:04.175Z,11.40
2022-11-09T02:14:34.606Z,11.40
2022-11-09T02:17:01.654Z,11.40
2022-11-09T02:19:29.704Z,11.40
2022-11-09T02:21:57.430Z,11.40
2022-11-09T02:24:25.204Z,11.40
2022-11-09T02:26:53.297Z,11.40
2022-11-09T02:29:27.826Z,11.40
2022-11-09T02:31:58.315Z,11.40
2022-11-09T02:34:25.726Z,11.40
2022-11-09T02:36:52.864Z,11.40
2022-11-09T02:39:25.775Z,11.40
2022-11-09T02:42:10.474Z,11.40
2022-11-09T02:44:45.992Z,11.30
2022-11-09T02:47:12.844Z,11.40
2022-11-09T02:49:39.875Z,11.40
2022-11-09T02:52:08.531Z,11.40
2022-11-09T02:54:35.821Z,11.30
2022-11-09T02:57:04.177Z,11.30
2022-11-09T02:59:32.434Z,11.30
2022-11-09T03:01:59.706Z,11.30
2022-11-09T03:04:29.347Z,11.30
2022-11-09T03:06:56.390Z,11.30
2022-11-09T03:09:23.372Z,11.30
2022-11-09T03:11:50.764Z,11.30
2022-11-09T03:14:17.850Z,11.30
2022-11-09T03:16:50.964Z,11.30
2022-11-09T03:19:18.649Z,11.30
2022-11-09T03:21:47.721Z,11.30
2022-11-09T03:24:14.579Z,11.30
2022-11-09T03:26:42.344Z,11.20
2022-11-09T03:29:09.412Z,11.20
2022-11-09T03:31:36.731Z,11.20
2022-11-09T03:34:06.564Z,11.20
2022-11-09T03:36:35.600Z,11.20
2022-11-09T03:39:02.611Z,11.20
2022-11-09T03:41:29.769Z,11.20
2022-11-09T03:43:56.639Z,11.10
2022-11-09T03:46:23.570Z,11.10
2022-11-09T03:48:50.493Z,11.10
2022-11-09T03:51:17.336Z,11.10
2022-11-09T03:53:44.260Z,11.10
2022-11-09T03:56:11.087Z,11.10
2022-11-09T03:58:37.923Z,11.10
2022-11-09T04:01:04.817Z,11.10
2022-11-09T04:03:31.978Z,11.10
2022-11-09T04:05:59.628Z,11.10
2022-11-09T04:08:26.626Z,11.00
2022-11-09T04:10:53.550Z,11.00
2022-11-09T04:13:20.748Z,11.00
2022-11-09T04:15:47.979Z,10.90
2022-11-09T04:18:16.242Z,10.90
2022-11-09T04:20:43.497Z,10.90
2022-11-09T04:23:12.782Z,10.90
2022-11-09T04:25:40.828Z,10.90
2022-11-09T04:28:11.761Z,10.90
2022-11-09T04:30:39.186Z,10.90
2022-11-09T04:33:06.481Z,10.90
2022-11-09T04:35:35.444Z,10.90
2022-11-09T04:38:05.924Z,10.90
2022-11-09T04:40:34.648Z,10.80
2022-11-09T04:43:02.787Z,10.90
2022-11-09T04:45:29.631Z,10.90
2022-11-09T04:48:00.660Z,10.90
2022-11-09T04:50:28.339Z,10.90
2022-11-09T04:52:55.263Z,10.90
2022-11-09T04:55:22.101Z,10.90
2022-11-09T04:57:48.948Z,10.90
2022-11-09T05:00:16.202Z,10.90
2022-11-09T05:02:43.057Z,10.90
2022-11-09T05:05:09.904Z,10.90
2022-11-09T05:07:37.466Z,10.90
2022-11-09T05:10:04.489Z,10.80
2022-11-09T05:12:31.364Z,10.80
2022-11-09T05:14:58.180Z,10.80
2022-11-09T05:17:25.047Z,10.80
2022-11-09T05:19:55.898Z,10.70
2022-11-09T05:22:41.568Z,10.70
2022-11-09T05:25:08.823Z,10.70
2022-11-09T05:27:35.667Z,10.80
2022-11-09T05:30:02.565Z,10.70
2022-11-09T05:32:29.427Z,10.60
2022-11-09T05:34:56.305Z,10.70
2022-11-09T05:37:23.584Z,10.60
2022-11-09T05:39:50.486Z,10.60
2022-11-09T05:42:17.319Z,10.50
2022-11-09T05:44:44.203Z,10.50
2022-11-09T05:47:11.052Z,10.60
2022-11-09T05:49:37.889Z,10.50
2022-11-09T05:52:04.843Z,10.50
2022-11-09T05:54:31.740Z,10.50
2022-11-09T05:56:58.920Z,10.40
2022-11-09T05:59:25.772Z,10.40
2022-11-09T06:01:52.755Z,10.40
2022-11-09T06:04:19.708Z,10.40
2022-11-09T06:06:46.671Z,10.30
2022-11-09T06:09:13.578Z,10.30
2022-11-09T06:11:40.602Z,10.30
2022-11-09T06:14:07.523Z,10.30
2022-11-09T06:16:34.341Z,10.20
2022-11-09T06:19:01.375Z,10.20
2022-11-09T06:21:28.190Z,10.20
2022-11-09T06:23:55.042Z,10.30
2022-11-09T06:26:21.907Z,10.20
2022-11-09T06:28:48.837Z,10.20
2022-11-09T06:31:17.228Z,10.20
2022-11-09T06:33:44.228Z,10.20
2022-11-09T06:36:11.727Z,10.20
2022-11-09T06:38:38.995Z,10.20
2022-11-09T06:41:06.193Z,10.20
2022-11-09T06:43:33.105Z,10.20
2022-11-09T06:46:03.845Z,10.20
2022-11-09T06:48:30.952Z,10.10
2022-11-09T06:51:05.457Z,10.20
2022-11-09T06:53:34.860Z,10.10
2022-11-09T06:56:03.800Z,10.10
2022-11-09T06:58:31.830Z,10.10
2022-11-09T07:00:58.836Z,10.10
2022-11-09T07:03:26.023Z,10.20
2022-11-09T07:05:53.357Z,10.20
2022-11-09T07:08:20.621Z,10.20
2022-11-09T07:10:47.549Z,10.20
2022-11-09T07:13:14.702Z,10.20
2022-11-09T07:15:41.597Z,10.20
2022-11-09T07:18:12.240Z,10.30
2022-11-09T07:20:39.213Z,10.30
2022-11-09T07:23:06.088Z,10.30
2022-11-09T07:25:33.717Z,10.40
2022-11-09T07:28:05.466Z,10.40
2022-11-09T07:30:32.428Z,10.40
2022-11-09T07:33:09.299Z,10.40
2022-11-09T07:35:37.991Z,10.50
2022-11-09T07:38:04.935Z,10.50
2022-11-09T07:40:31.838Z,10.50
2022-11-09T07:43:03.439Z,10.50
2022-11-09T07:45:32.317Z,10.60
2022-11-09T07:48:05.338Z,10.60
2022-11-09T07:50:33.297Z,10.60
2022-11-09T07:53:01.584Z,10.70
2022-11-09T07:55:29.511Z,10.70
2022-11-09T07:57:57.079Z,10.80
2022-11-09T08:00:24.604Z,10.80
2022-11-09T08:02:52.000Z,10.90
2022-11-09T08:05:18.864Z,10.90
2022-11-09T08:07:46.592Z,11.00
2022-11-09T08:10:14.248Z,11.00
2022-11-09T08:12:41.149Z,11.00
2022-11-09T08:15:08.568Z,11.10
2022-11-09T08:17:35.483Z,11.10
2022-11-09T08:20:03.058Z,11.20
2022-11-09T08:22:29.954Z,11.20
2022-11-09T08:24:56.808Z,11.20
2022-11-09T08:27:23.732Z,11.30
2022-11-09T08:29:50.586Z,11.40
2022-11-09T08:32:17.422Z,11.40
2022-11-09T08:34:48.334Z,11.50
2022-11-09T08:37:16.334Z,11.50
2022-11-09T08:39:43.304Z,11.60
2022-11-09T08:42:10.157Z,11.60
2022-11-09T08:44:37.098Z,11.60
2022-11-09T08:47:03.948Z,11.70
2022-11-09T08:49:30.834Z,11.70
2022-11-09T08:51:57.753Z,11.80
2022-11-09T08:54:24.646Z,11.80
2022-11-09T08:56:54.461Z,11.90
2022-11-09T08:59:21.627Z,12.00
2022-11-09T09:01:48.618Z,12.10
2022-11-09T09:04:15.609Z,12.10
2022-11-09T09:06:42.545Z,12.20
2022-11-09T09:09:09.481Z,12.20
2022-11-09T09:11:36.360Z,12.30
2022-11-09T09:14:03.270Z,12.30
2022-11-09T09:16:30.136Z,12.30
2022-11-09T09:18:57.006Z,12.40
2022-11-09T09:21:23.847Z,12.40
2022-11-09T09:23:50.852Z,12.50
2022-11-09T09:26:19.395Z,12.50
2022-11-09T09:28:46.259Z,12.50
2022-11-09T09:31:17.285Z,12.60
2022-11-09T09:33:46.485Z,12.60
2022-11-09T09:36:21.937Z,12.70
2022-11-09T09:38:55.529Z,12.80
2022-11-09T09:41:39.528Z,12.80
2022-11-09T09:44:23.708Z,12.90
2022-11-09T09:47:10.583Z,13.00
2022-11-09T09:49:45.910Z,13.00
2022-11-09T09:52:23.757Z,13.00
2022-11-09T09:55:17.418Z,13.00
2022-11-09T09:57:50.715Z,13.00
2022-11-09T10:00:27.126Z,12.90
2022-11-09T10:02:54.913Z,12.90
2022-11-09T10:05:43.755Z,12.90
2022-11-09T10:08:31.393Z,12.80
2022-11-09T10:11:12.934Z,12.80
2022-11-09T10:13:49.978Z,12.70
2022-11-09T10:16:19.581Z,12.70
2022-11-09T10:19:11.058Z,12.60
2022-11-09T10:21:59.108Z,12.60
2022-11-09T10:24:31.941Z,12.50
2022-11-09T10:27:00.124Z,12.50
2022-11-09T10:29:43.383Z,12.40
2022-11-09T10:32:15.865Z,12.40
2022-11-09T10:35:02.234Z,12.40
2022-11-09T10:37:33.165Z,12.30
2022-11-09T10:40:09.465Z,12.40
2022-11-09T10:43:01.122Z,12.30
2022-11-09T10:45:57.132Z,12.40
2022-11-09T10:48:42.406Z,12.40
2022-11-09T10:51:38.572Z,12.40
2022-11-09T10:54:37.781Z,12.40
2022-11-09T10:57:24.814Z,12.40
2022-11-09T11:00:19.664Z,12.30
2022-11-09T11:03:17.312Z,12.40
2022-11-09T11:06:05.187Z,12.30
2022-11-09T11:09:15.620Z,12.30
2022-11-09T11:12:20.368Z,12.30
2022-11-09T11:15:29.668Z,12.40
2022-11-09T11:18:26.018Z,12.40
2022-11-09T11:21:19.403Z,12.40
2022-11-09T11:24:13.711Z,12.40
2022-11-09T11:27:10.844Z,12.40
2022-11-09T11:30:01.675Z,12.40
2022-11-09T11:32:50.447Z,12.40
2022-11-09T11:35:54.587Z,12.40
2022-11-09T11:38:50.756Z,12.30
2022-11-09T11:41:57.547Z,12.30
2022-11-09T11:44:50.522Z,12.30
2022-11-09T11:47:46.473Z,12.30
2022-11-09T11:50:44.020Z,12.30
2022-11-09T11:53:57.368Z,12.30
2022-11-09T11:57:00.688Z,12.30
2022-11-09T11:59:59.204Z,12.30
2022-11-09T12:03:32.608Z,12.30
2022-11-09T12:06:32.613Z,12.30
2022-11-09T12:09:35.075Z,12.30
2022-11-09T12:12:32.089Z,12.30
2022-11-09T12:15:37.256Z,12.30
2022-11-09T12:18:50.476Z,12.30
2022-11-09T12:22:03.864Z,12.30
2022-11-09T12:25:02.885Z,12.30
2022-11-09T12:28:14.767Z,12.30
2022-11-09T12:31:12.423Z,12.30
2022-11-09T12:34:07.425Z,12.30
2022-11-09T12:37:02.881Z,12.30
2022-11-09T12:39:52.844Z,12.40
2022-11-09T12:43:04.384Z,12.30
2022-11-09T12:45:52.773Z,12.30
2022-11-09T12:48:38.523Z,12.30
2022-11-09T12:51:24.277Z,12.30
2022-11-09T12:54:11.699Z,12.30
2022-11-09T12:57:01.528Z,12.20
2022-11-09T12:59:53.351Z,12.20
2022-11-09T13:02:54.629Z,12.20
2022-11-09T13:05:40.362Z,12.20
2022-11-09T13:08:31.762Z,12.10
2022-11-09T13:11:25.858Z,12.10
2022-11-09T13:14:23.175Z,12.10
2022-11-09T13:17:24.368Z,12.10
2022-11-09T13:24:00.878Z,12.10
2022-11-09T13:26:46.468Z,12.10
2022-11-09T13:33:09.567Z,12.00
2022-11-09T13:35:55.598Z,12.00
2022-11-09T13:38:42.027Z,11.90
2022-11-09T13:41:31.885Z,11.90
2022-11-09T13:44:23.842Z,11.90
2022-11-09T13:47:26.473Z,11.90
2022-11-09T13:50:27.913Z,11.90
2022-11-09T13:53:39.015Z,11.90
2022-11-09T13:56:30.258Z,11.80
2022-11-09T13:59:25.521Z,11.80
2022-11-09T14:02:22.667Z,11.80
2022-11-09T14:05:27.674Z,11.80
2022-11-09T14:08:40.318Z,11.70
2022-11-09T14:11:55.935Z,11.70
2022-11-09T14:15:02.283Z,11.70
2022-11-09T14:18:02.737Z,11.70
2022-11-09T14:21:11.209Z,11.60
2022-11-09T14:24:22.004Z,11.60
2022-11-09T14:27:10.584Z,11.60
2022-11-09T14:29:59.323Z,11.60
2022-11-09T14:32:49.648Z,11.70
2022-11-09T14:35:35.840Z,11.60
2022-11-09T14:38:25.065Z,11.70
2022-11-09T14:41:25.616Z,11.60
2022-11-09T14:44:23.326Z,11.60
2022-11-09T14:47:21.979Z,11.60
2022-11-09T14:50:14.637Z,11.60
2022-11-09T14:53:02.446Z,11.50
2022-11-09T14:55:49.586Z,11.60
2022-11-09T14:58:38.429Z,11.50
2022-11-09T15:01:26.443Z,11.50
2022-11-09T15:04:22.966Z,11.50
2022-11-09T15:07:20.366Z,11.50
2022-11-09T15:10:08.846Z,11.50
2022-11-09T15:12:59.084Z,11.50
2022-11-09T15:15:51.679Z,11.50
2022-11-09T15:18:44.748Z,11.50
2022-11-09T15:21:30.206Z,11.50
2022-11-09T15:24:18.025Z,11.60
2022-11-09T15:27:03.992Z,11.50
2022-11-09T15:29:49.875Z,11.50
2022-11-09T15:32:38.425Z,11.50
2022-11-09T15:35:24.224Z,11.40
2022-11-09T15:38:30.462Z,11.40
2022-11-09T15:41:21.476Z,11.40
2022-11-09T15:44:07.386Z,11.40
2022-11-09T15:46:54.259Z,11.30
2022-11-09T15:49:39.850Z,11.30
2022-11-09T15:52:25.667Z,11.30
2022-11-09T15:55:15.731Z,11.30
2022-11-09T15:58:02.487Z,11.30
2022-11-09T16:00:48.021Z,11.20
2022-11-09T16:03:33.421Z,11.20
2022-11-09T16:06:22.281Z,11.20
2022-11-09T16:09:08.342Z,11.20
2022-11-09T16:11:53.967Z,11.10
2022-11-09T16:14:39.501Z,11.20
2022-11-09T16:17:25.023Z,11.10
2022-11-09T16:20:11.004Z,11.10
2022-11-09T16:22:56.498Z,11.10
2022-11-09T16:25:42.111Z,11.10
2022-11-09T16:28:28.019Z,11.10
2022-11-09T16:31:13.939Z,11.10
2022-11-09T16:33:59.500Z,11.10
2022-11-09T16:36:50.933Z,11.10
2022-11-09T16:39:39.799Z,11.10
2022-11-09T16:42:26.199Z,11.10
2022-11-09T16:45:15.736Z,11.10
2022-11-09T16:48:04.396Z,11.10
2022-11-09T16:50:49.803Z,11.10
2022-11-09T16:53:34.999Z,11.10
2022-11-09T16:56:20.535Z,11.10
2022-11-09T16:59:06.262Z,11.10
2022-11-09T17:01:53.893Z,11.10
2022-11-09T17:04:40.339Z,11.10
2022-11-09T17:07:26.366Z,11.10
2022-11-09T17:10:12.146Z,11.10
2022-11-09T17:12:57.437Z,11.00
2022-11-09T17:15:48.643Z,11.00
2022-11-09T17:18:34.005Z,11.00
2022-11-09T17:21:19.763Z,10.90
2022-11-09T17:24:06.426Z,10.90
2022-11-09T17:26:52.105Z,10.90
2022-11-09T17:29:38.542Z,10.90
2022-11-09T17:32:27.397Z,10.80
2022-11-09T17:35:12.626Z,10.80
2022-11-09T17:37:58.469Z,10.80
2022-11-09T17:40:43.617Z,10.80
2022-11-09T17:43:33.805Z,10.80
2022-11-09T17:46:21.641Z,10.80
2022-11-09T17:49:09.960Z,10.80
2022-11-09T17:51:56.012Z,10.80
2022-11-09T17:54:41.471Z,10.70
2022-11-09T17:57:26.822Z,10.70
2022-11-09T18:00:13.122Z,10.70
2022-11-09T18:02:58.590Z,10.70
2022-11-09T18:05:45.230Z,10.70
2022-11-09T18:08:30.863Z,10.60
2022-11-09T18:11:17.966Z,10.60
2022-11-09T18:14:03.566Z,10.60
2022-11-09T18:16:48.906Z,10.60
2022-11-09T18:19:34.432Z,10.60
2022-11-09T18:22:19.913Z,10.60
2022-11-09T18:25:05.855Z,10.60
2022-11-09T18:27:52.401Z,10.60
2022-11-09T18:30:41.661Z,10.60
2022-11-09T18:33:27.231Z,10.60
2022-11-09T18:36:15.686Z,10.60
2022-11-09T18:39:03.210Z,10.60
2022-11-09T18:41:48.874Z,10.60
2022-11-09T18:44:34.377Z,10.60
2022-11-09T18:47:20.531Z,10.50
2022-11-09T18:50:06.991Z,10.50
2022-11-09T18:52:52.386Z,10.50
2022-11-09T18:55:37.806Z,10.50
2022-11-09T18:58:23.548Z,10.50
2022-11-09T19:01:09.771Z,10.40
2022-11-09T19:03:59.324Z,10.50
2022-11-09T19:06:45.882Z,10.50
2022-11-09T19:09:35.564Z,10.50
2022-11-09T19:12:20.818Z,10.50
2022-11-09T19:15:06.804Z,10.40
2022-11-09T19:17:52.393Z,10.40
2022-11-09T19:20:38.888Z,10.40
2022-11-09T19:23:27.360Z,10.40
2022-11-09T19:26:15.172Z,10.40
2022-11-09T19:29:00.711Z,10.30
2022-11-09T19:31:47.156Z,10.40
2022-11-09T19:34:32.697Z,10.40
2022-11-09T19:37:17.837Z,10.40
2022-11-09T19:40:04.124Z,10.40
2022-11-09T19:42:49.595Z,10.40
2022-11-09T19:45:40.386Z,10.40
2022-11-09T19:48:25.711Z,10.40
2022-11-09T19:51:11.814Z,10.40
2022-11-09T19:53:59.584Z,10.40
2022-11-09T19:56:45.179Z,10.40
2022-11-09T19:59:30.899Z,10.40
2022-11-09T20:02:16.223Z,10.40
2022-11-09T20:05:01.893Z,10.50
2022-11-09T20:07:47.293Z,10.50
2022-11-09T20:10:37.549Z,10.40
2022-11-09T20:13:24.540Z,10.40
2022-11-09T20:16:10.675Z,10.40
2022-11-09T20:18:56.369Z,10.40
2022-11-09T20:21:42.735Z,10.40
2022-11-09T20:24:27.906Z,10.40
2022-11-09T20:27:14.609Z,10.40
2022-11-09T20:29:59.804Z,10.40
2022-11-09T20:32:45.219Z,10.40
2022-11-09T20:35:30.832Z,10.40
2022-11-09T20:38:16.285Z,10.40
2022-11-09T20:41:04.521Z,10.40
2022-11-09T20:43:49.761Z,10.40
2022-11-09T20:46:36.710Z,10.40
2022-11-09T20:49:22.389Z,10.40
2022-11-09T20:52:07.650Z,10.40
2022-11-09T20:54:53.068Z,10.40
2022-11-09T20:57:38.805Z,10.40
2022-11-09T21:00:24.790Z,10.40
2022-11-09T21:03:10.783Z,10.40
2022-11-09T21:05:59.358Z,10.40
2022-11-09T21:08:46.693Z,10.40
2022-11-09T21:11:35.748Z,10.40
2022-11-09T21:14:21.506Z,10.40
2022-11-09T21:17:07.157Z,10.50
2022-11-09T21:19:52.787Z,10.50
2022-11-09T21:22:57.736Z,10.50
2022-11-09T21:26:02.529Z,10.60
2022-11-09T21:29:06.485Z,10.60
2022-11-09T21:31:52.064Z,10.60
2022-11-09T21:34:38.610Z,10.60
2022-11-09T21:37:24.470Z,10.60
2022-11-09T21:40:10.290Z,10.70
2022-11-09T21:42:56.111Z,10.70
2022-11-09T21:45:42.309Z,10.60
2022-11-09T21:48:27.608Z,10.70
2022-11-09T21:51:13.206Z,10.70
2022-11-09T21:53:59.051Z,10.70
2022-11-09T21:56:44.538Z,10.70
2022-11-09T21:59:29.966Z,10.80
2022-11-09T22:02:15.499Z,10.80
2022-11-09T22:05:00.868Z,10.80
2022-11-09T22:07:46.271Z,10.80
2022-11-09T22:10:31.946Z,10.80
2022-11-09T22:13:35.973Z,10.80
2022-11-09T22:16:23.488Z,10.80
2022-11-09T22:19:27.387Z,10.80
2022-11-09T22:22:14.116Z,10.70
2022-11-09T22:24:59.687Z,10.70
2022-11-09T22:27:45.093Z,10.70
2022-11-09T22:30:30.596Z,10.70
2022-11-09T22:33:19.814Z,10.70
2022-11-09T22:36:11.534Z,10.70
2022-11-09T22:38:56.858Z,10.70
2022-11-09T22:41:42.290Z,10.70
2022-11-09T22:44:27.803Z,10.70
2022-11-09T22:47:13.428Z,10.70
2022-11-09T22:49:58.999Z,10.70
2022-11-09T22:52:44.646Z,10.70
2022-11-09T22:55:30.283Z,10.60
2022-11-09T22:58:15.443Z,10.60
2022-11-09T23:01:06.886Z,10.50
2022-11-09T23:03:52.841Z,10.50
2022-11-09T23:06:39.015Z,10.50
2022-11-09T23:09:25.047Z,10.50
2022-11-09T23:12:10.562Z,10.50
2022-11-09T23:15:05.055Z,10.50
2022-11-09T23:18:12.184Z,10.40
2022-11-09T23:21:00.515Z,10.40
2022-11-09T23:23:46.500Z,10.40
2022-11-09T23:26:32.866Z,10.40
2022-11-09T23:29:18.351Z,10.40
2022-11-09T23:32:03.842Z,10.40
2022-11-09T23:34:49.419Z,10.40
2022-11-09T23:37:34.915Z,10.40
2022-11-09T23:40:20.311Z,10.40
2022-11-09T23:43:08.363Z,10.40
2022-11-09T23:45:54.109Z,10.40
2022-11-09T23:48:41.412Z,10.40
2022-11-09T23:51:26.883Z,10.40
2022-11-09T23:54:12.311Z,10.40
2022-11-09T23:56:57.804Z,10.40
2022-11-09T23:59:43.314Z,10.40
